createdAt,value
2023-03-27T00:01:11.957Z,0.34
2023-03-27T00:03:40.313Z,0.13
2023-03-27T00:06:09.813Z,0.25
2023-03-27T00:08:36.941Z,0.14
2023-03-27T00:11:04.540Z,0.12
2023-03-27T00:13:31.655Z,0.22
2023-03-27T00:15:58.746Z,0.09
2023-03-27T00:18:26.621Z,0.03
2023-03-27T00:20:53.631Z,0.04
2023-03-27T00:23:20.574Z,0.15
2023-03-27T00:25:51.402Z,0.12
2023-03-27T00:28:18.774Z,0.20
2023-03-27T00:30:46.575Z,0.29
2023-03-27T00:33:14.257Z,0.24
2023-03-27T00:35:46.073Z,0.41
2023-03-27T00:38:13.817Z,0.34
2023-03-27T00:40:41.386Z,0.36
2023-03-27T00:43:22.390Z,0.54
2023-03-27T00:45:52.124Z,0.35
2023-03-27T00:48:20.774Z,0.48
2023-03-27T00:50:49.880Z,0.59
2023-03-27T00:53:22.047Z,0.65
2023-03-27T00:55:51.569Z,0.53
2023-03-27T00:59:02.826Z,0.48
2023-03-27T01:01:32.335Z,0.53
2023-03-27T01:04:02.114Z,0.52
2023-03-27T01:06:30.613Z,0.31
2023-03-27T01:08:58.472Z,0.35
2023-03-27T01:11:52.481Z,0.14
2023-03-27T01:14:34.672Z,0.04
2023-03-27T01:17:20.699Z,0.27
2023-03-27T01:20:15.657Z,0.14
2023-03-27T01:23:01.225Z,0.06
2023-03-27T01:25:52.493Z,0.33
2023-03-27T01:28:34.819Z,0.05
2023-03-27T01:31:40.602Z,0.27
2023-03-27T01:34:22.886Z,0.09
2023-03-27T01:36:57.842Z,0.16
2023-03-27T01:39:40.472Z,0.16
2023-03-27T01:42:46.215Z,0.04
2023-03-27T01:45:42.062Z,-0.02
2023-03-27T01:48:21.352Z,0.02
2023-03-27T01:50:55.763Z,0.16
2023-03-27T01:53:45.441Z,0.03
2023-03-27T01:56:26.634Z,0.18
2023-03-27T01:59:04.248Z,0.02
2023-03-27T02:01:36.617Z,-0.08
2023-03-27T02:04:07.651Z,-0.11
2023-03-27T02:06:38.215Z,0.00
2023-03-27T02:09:10.658Z,-0.07
2023-03-27T02:11:44.873Z,-0.11
2023-03-27T02:14:21.398Z,-0.11
2023-03-27T02:16:52.343Z,-0.12
2023-03-27T02:19:34.857Z,-0.15
2023-03-27T02:22:02.213Z,-0.22
2023-03-27T02:24:43.625Z,-0.24
2023-03-27T02:27:22.361Z,-0.11
2023-03-27T02:30:00.258Z,-0.10
2023-03-27T02:32:33.142Z,-0.24
2023-03-27T02:35:12.712Z,-0.22
2023-03-27T02:38:08.539Z,-0.12
2023-03-27T02:41:06.541Z,-0.05
2023-03-27T02:43:47.949Z,-0.15
2023-03-27T02:46:27.420Z,-0.22
2023-03-27T02:48:59.640Z,-0.27
2023-03-27T02:51:33.950Z,-0.17
2023-03-27T02:54:08.373Z,-0.20
2023-03-27T02:56:39.505Z,-0.21
2023-03-27T02:59:10.603Z,-0.27
2023-03-27T03:01:40.662Z,-0.22
2023-03-27T03:04:22.848Z,-0.06
2023-03-27T03:07:14.392Z,0.04
2023-03-27T03:09:44.650Z,0.12
2023-03-27T03:12:13.713Z,-0.04
2023-03-27T03:14:46.724Z,0.14
2023-03-27T03:17:15.547Z,0.04
2023-03-27T03:19:42.267Z,0.02
2023-03-27T03:22:09.207Z,0.05
2023-03-27T03:24:37.550Z,-0.07
2023-03-27T03:27:05.886Z,-0.13
2023-03-27T03:29:44.967Z,-0.27
2023-03-27T03:32:26.522Z,-0.17
2023-03-27T03:34:53.767Z,-0.02
2023-03-27T03:37:20.704Z,-0.12
2023-03-27T03:39:47.558Z,-0.27
2023-03-27T03:42:22.859Z,-0.37
2023-03-27T03:44:52.781Z,-0.33
2023-03-27T03:47:22.295Z,-0.43
2023-03-27T03:49:49.834Z,-0.39
2023-03-27T03:52:16.785Z,-0.26
2023-03-27T03:54:46.743Z,-0.37
2023-03-27T03:57:14.195Z,-0.37
2023-03-27T03:59:41.908Z,-0.35
2023-03-27T04:02:29.090Z,-0.44
2023-03-27T04:05:08.402Z,-0.43
2023-03-27T04:07:36.951Z,-0.43
2023-03-27T04:10:24.011Z,-0.44
2023-03-27T04:12:51.432Z,-0.50
2023-03-27T04:15:27.307Z,-0.46
2023-03-27T04:17:57.861Z,-0.47
2023-03-27T04:20:26.597Z,-0.48
2023-03-27T04:22:55.818Z,-0.42
2023-03-27T04:25:24.836Z,-0.49
2023-03-27T04:27:52.452Z,-0.53
2023-03-27T04:30:27.948Z,-0.60
2023-03-27T04:33:19.430Z,-0.60
2023-03-27T04:36:18.208Z,-0.71
2023-03-27T04:38:55.860Z,-0.81
2023-03-27T04:41:23.050Z,-0.91
2023-03-27T04:43:50.108Z,-1.02
2023-03-27T04:46:17.390Z,-0.97
2023-03-27T04:48:44.661Z,-0.92
2023-03-27T04:51:43.760Z,-0.89
2023-03-27T04:54:12.378Z,-0.87
2023-03-27T04:56:43.250Z,-0.92
2023-03-27T04:59:10.349Z,-0.88
2023-03-27T05:01:37.706Z,-0.90
2023-03-27T05:04:04.840Z,-0.85
2023-03-27T05:06:41.792Z,-0.86
2023-03-27T05:09:13.159Z,-0.77
2023-03-27T05:11:40.065Z,-0.78
2023-03-27T05:14:08.678Z,-0.78
2023-03-27T05:16:37.470Z,-0.68
2023-03-27T05:19:06.322Z,-0.80
2023-03-27T05:21:41.261Z,-0.90
2023-03-27T05:24:11.254Z,-0.91
2023-03-27T05:26:39.286Z,-1.00
2023-03-27T05:29:06.213Z,-0.96
2023-03-27T05:31:37.176Z,-1.03
2023-03-27T05:34:22.394Z,-1.04
2023-03-27T05:36:53.174Z,-1.02
2023-03-27T05:39:20.338Z,-0.91
2023-03-27T05:41:47.739Z,-1.00
2023-03-27T05:44:22.292Z,-1.07
2023-03-27T05:46:49.599Z,-0.96
2023-03-27T05:49:25.555Z,-1.00
2023-03-27T05:51:58.341Z,-0.99
2023-03-27T05:54:25.112Z,-0.86
2023-03-27T05:56:59.683Z,-0.95
2023-03-27T05:59:26.956Z,-0.85
2023-03-27T06:02:00.313Z,-0.82
2023-03-27T06:04:39.400Z,-0.88
2023-03-27T06:07:10.498Z,-1.02
2023-03-27T06:09:37.649Z,-1.04
2023-03-27T06:12:39.896Z,-1.05
2023-03-27T06:15:20.566Z,-0.91
2023-03-27T06:18:08.550Z,-0.89
2023-03-27T06:20:38.148Z,-0.86
2023-03-27T06:23:08.260Z,-0.86
2023-03-27T06:25:37.838Z,-0.88
2023-03-27T06:28:08.164Z,-0.82
2023-03-27T06:30:46.878Z,-0.76
2023-03-27T06:33:35.172Z,-0.74
2023-03-27T06:36:06.586Z,-0.73
2023-03-27T06:38:37.273Z,-0.80
2023-03-27T06:41:05.511Z,-0.63
2023-03-27T06:44:05.706Z,-0.61
2023-03-27T06:46:55.983Z,-0.55
2023-03-27T06:49:33.517Z,-0.52
2023-03-27T06:52:09.168Z,-0.52
2023-03-27T06:54:36.898Z,-0.37
2023-03-27T06:57:03.955Z,-0.41
2023-03-27T06:59:43.650Z,-0.44
2023-03-27T07:02:11.615Z,-0.48
2023-03-27T07:05:05.292Z,-0.34
2023-03-27T07:07:41.605Z,-0.31
2023-03-27T07:10:10.933Z,-0.26
2023-03-27T07:12:40.117Z,-0.08
2023-03-27T07:15:08.293Z,0.02
2023-03-27T07:17:47.937Z,0.57
2023-03-27T07:20:18.537Z,0.96
2023-03-27T07:22:45.973Z,1.07
2023-03-27T07:25:32.836Z,0.89
2023-03-27T07:28:00.371Z,0.73
2023-03-27T07:30:28.029Z,0.76
2023-03-27T07:32:55.017Z,0.58
2023-03-27T07:35:22.141Z,0.67
2023-03-27T07:38:07.417Z,0.77
2023-03-27T07:40:39.945Z,0.88
2023-03-27T07:43:40.056Z,0.59
2023-03-27T07:46:08.604Z,0.90
2023-03-27T07:48:36.010Z,0.94
2023-03-27T07:51:13.268Z,1.00
2023-03-27T07:53:41.839Z,0.91
2023-03-27T07:56:21.179Z,0.96
2023-03-27T07:58:49.315Z,1.12
2023-03-27T08:01:20.987Z,1.26
2023-03-27T08:03:49.021Z,1.26
2023-03-27T08:06:18.954Z,1.30
2023-03-27T08:08:46.766Z,1.28
2023-03-27T08:11:27.188Z,1.33
2023-03-27T08:13:57.095Z,1.36
2023-03-27T08:16:27.791Z,1.41
2023-03-27T08:18:56.162Z,1.56
2023-03-27T08:21:24.403Z,1.51
2023-03-27T08:23:51.332Z,1.48
2023-03-27T08:26:44.134Z,1.67
2023-03-27T08:29:14.412Z,1.62
2023-03-27T08:31:46.183Z,1.63
2023-03-27T08:34:14.784Z,1.76
2023-03-27T08:36:45.505Z,1.70
2023-03-27T08:39:13.836Z,1.88
2023-03-27T08:42:03.851Z,1.89
2023-03-27T08:44:35.773Z,1.95
2023-03-27T08:47:37.398Z,2.01
2023-03-27T08:50:48.507Z,2.01
2023-03-27T08:53:41.203Z,2.09
2023-03-27T08:56:14.005Z,2.22
2023-03-27T08:58:45.592Z,2.12
2023-03-27T09:01:41.707Z,2.20
2023-03-27T09:04:25.087Z,2.28
2023-03-27T09:06:59.818Z,2.31
2023-03-27T09:09:31.969Z,2.37
2023-03-27T09:12:23.679Z,2.42
2023-03-27T09:15:20.461Z,2.59
2023-03-27T09:18:16.435Z,2.62
2023-03-27T09:20:46.328Z,2.69
2023-03-27T09:23:39.769Z,2.51
2023-03-27T09:26:30.394Z,2.59
2023-03-27T09:29:25.640Z,2.71
2023-03-27T09:32:21.531Z,2.76
2023-03-27T09:34:48.340Z,2.75
2023-03-27T09:37:17.983Z,2.92
2023-03-27T09:39:47.008Z,2.96
2023-03-27T09:42:33.879Z,2.93
2023-03-27T09:45:04.571Z,3.02
2023-03-27T09:48:00.064Z,3.02
2023-03-27T09:50:44.564Z,3.04
2023-03-27T09:53:25.964Z,3.12
2023-03-27T09:56:16.466Z,3.14
2023-03-27T09:58:49.226Z,3.16
2023-03-27T10:01:27.876Z,3.13
2023-03-27T10:04:00.333Z,3.19
2023-03-27T10:06:39.496Z,3.36
2023-03-27T10:09:23.448Z,3.41
2023-03-27T10:12:01.517Z,3.43
2023-03-27T10:14:30.997Z,3.33
2023-03-27T10:16:58.080Z,3.58
2023-03-27T10:19:38.785Z,3.52
2023-03-27T10:22:31.603Z,3.58
2023-03-27T10:25:01.254Z,3.42
2023-03-27T10:27:47.375Z,3.51
2023-03-27T10:30:43.801Z,3.58
2023-03-27T10:33:37.758Z,3.60
2023-03-27T10:36:14.595Z,3.68
2023-03-27T10:38:42.113Z,3.82
2023-03-27T10:41:29.048Z,3.81
2023-03-27T10:43:59.129Z,3.67
2023-03-27T10:46:27.248Z,3.80
2023-03-27T10:49:19.251Z,3.92
2023-03-27T10:51:49.649Z,3.82
2023-03-27T10:54:47.554Z,3.89
2023-03-27T10:57:23.781Z,4.00
2023-03-27T10:59:59.428Z,3.95
2023-03-27T11:02:43.371Z,4.15
2023-03-27T11:05:21.857Z,4.19
2023-03-27T11:07:54.673Z,4.22
2023-03-27T11:10:33.933Z,4.18
2023-03-27T11:13:23.284Z,4.55
2023-03-27T11:16:06.147Z,4.61
2023-03-27T11:18:58.407Z,4.42
2023-03-27T11:21:34.859Z,4.40
2023-03-27T11:24:04.067Z,4.43
2023-03-27T11:26:58.181Z,4.43
2023-03-27T11:29:32.905Z,4.32
2023-03-27T11:32:06.220Z,4.47
2023-03-27T11:35:29.667Z,4.71
2023-03-27T11:38:29.430Z,5.01
2023-03-27T11:40:56.955Z,5.01
2023-03-27T11:43:25.826Z,4.97
2023-03-27T11:46:01.778Z,5.14
2023-03-27T11:48:53.023Z,5.50
2023-03-27T11:51:36.948Z,5.65
2023-03-27T11:54:17.068Z,5.68
2023-03-27T11:56:58.068Z,5.76
2023-03-27T12:00:06.196Z,5.73
2023-03-27T12:03:18.615Z,5.72
2023-03-27T12:06:05.601Z,5.68
2023-03-27T12:09:01.147Z,5.62
2023-03-27T12:11:42.413Z,5.40
2023-03-27T12:14:28.251Z,5.84
2023-03-27T12:17:23.770Z,5.95
2023-03-27T12:20:19.997Z,5.74
2023-03-27T12:23:17.860Z,5.79
2023-03-27T12:26:15.858Z,5.77
2023-03-27T12:29:26.854Z,5.55
2023-03-27T12:32:39.418Z,5.98
2023-03-27T12:35:21.239Z,5.90
2023-03-27T12:38:02.418Z,6.01
2023-03-27T12:40:39.872Z,6.02
2023-03-27T12:43:22.101Z,6.43
2023-03-27T12:46:08.033Z,7.12
2023-03-27T12:48:47.314Z,7.58
2023-03-27T12:51:17.651Z,7.52
2023-03-27T12:53:47.826Z,7.70
2023-03-27T12:56:24.671Z,8.42
2023-03-27T12:58:54.720Z,8.14
2023-03-27T13:04:34.727Z,8.82
2023-03-27T13:07:35.871Z,8.08
2023-03-27T13:10:26.084Z,7.79
2023-03-27T13:13:05.693Z,8.10
2023-03-27T13:16:05.902Z,8.22
2023-03-27T13:18:53.853Z,8.78
2023-03-27T13:21:45.957Z,9.81
2023-03-27T13:24:36.792Z,9.84
2023-03-27T13:27:57.999Z,10.08
2023-03-27T13:30:45.533Z,10.94
2023-03-27T13:33:44.315Z,11.80
2023-03-27T13:36:24.706Z,11.44
2023-03-27T13:38:52.687Z,11.80
2023-03-27T13:41:44.398Z,11.84
2023-03-27T13:44:28.539Z,12.12
2023-03-27T13:47:09.113Z,12.95
2023-03-27T13:49:50.147Z,12.76
2023-03-27T13:52:32.035Z,13.96
2023-03-27T13:55:17.253Z,14.26
2023-03-27T13:58:37.614Z,13.52
2023-03-27T14:01:17.196Z,14.52
2023-03-27T14:04:07.449Z,14.60
2023-03-27T14:06:53.341Z,14.19
2023-03-27T14:09:51.912Z,15.15
2023-03-27T14:12:40.674Z,14.73
2023-03-27T14:15:39.762Z,14.25
2023-03-27T14:18:37.292Z,14.58
2023-03-27T14:21:06.800Z,13.61
2023-03-27T14:24:00.395Z,14.73
2023-03-27T14:26:41.882Z,15.31
2023-03-27T14:29:15.551Z,15.44
2023-03-27T14:31:47.313Z,15.29
2023-03-27T14:34:35.265Z,15.58
2023-03-27T14:37:36.217Z,15.39
2023-03-27T14:40:42.428Z,15.56
2023-03-27T14:43:12.443Z,15.26
2023-03-27T14:45:41.170Z,15.54
2023-03-27T14:48:24.017Z,15.88
2023-03-27T14:50:58.059Z,15.61
2023-03-27T14:53:27.731Z,15.80
2023-03-27T14:56:11.757Z,15.91
2023-03-27T14:58:59.794Z,16.17
2023-03-27T15:01:35.411Z,15.75
2023-03-27T15:04:03.156Z,15.68
2023-03-27T15:06:36.414Z,16.26
2023-03-27T15:09:13.449Z,16.31
2023-03-27T15:12:13.248Z,16.19
2023-03-27T15:14:40.917Z,16.78
2023-03-27T15:17:17.865Z,17.46
2023-03-27T15:19:53.437Z,16.57
2023-03-27T15:22:40.144Z,16.92
2023-03-27T15:25:18.486Z,16.96
2023-03-27T15:27:53.019Z,17.58
2023-03-27T15:30:23.343Z,17.58
2023-03-27T15:32:53.273Z,17.21
2023-03-27T15:35:25.628Z,17.59
2023-03-27T15:37:53.000Z,17.30
2023-03-27T15:40:39.039Z,17.62
2023-03-27T15:43:13.744Z,17.41
2023-03-27T15:46:02.733Z,17.88
2023-03-27T15:48:33.010Z,18.11
2023-03-27T15:51:08.316Z,17.49
2023-03-27T15:53:39.765Z,17.69
2023-03-27T15:56:06.662Z,18.07
2023-03-27T15:58:42.524Z,17.94
2023-03-27T16:01:23.947Z,17.98
2023-03-27T16:03:51.574Z,17.85
2023-03-27T16:06:46.192Z,18.06
2023-03-27T16:09:25.914Z,18.24
2023-03-27T16:11:54.801Z,17.98
2023-03-27T16:14:36.936Z,18.98
2023-03-27T16:17:11.445Z,18.77
2023-03-27T16:19:58.316Z,18.78
2023-03-27T16:22:33.960Z,18.36
2023-03-27T16:25:01.977Z,18.68
2023-03-27T16:27:35.680Z,18.73
2023-03-27T16:30:03.350Z,18.14
2023-03-27T16:32:30.198Z,18.30
2023-03-27T16:34:57.045Z,17.91
2023-03-27T16:37:25.736Z,17.45
2023-03-27T16:39:56.731Z,17.26
2023-03-27T16:42:26.088Z,16.18
2023-03-27T16:44:54.002Z,14.28
2023-03-27T16:47:23.076Z,13.65
2023-03-27T16:50:03.501Z,12.90
2023-03-27T16:52:36.952Z,12.25
2023-03-27T16:55:07.258Z,11.66
2023-03-27T16:57:34.919Z,11.38
2023-03-27T17:00:01.824Z,10.78
2023-03-27T17:02:30.764Z,10.34
2023-03-27T17:04:58.907Z,10.34
2023-03-27T17:07:27.555Z,9.98
2023-03-27T17:09:54.829Z,9.93
2023-03-27T17:12:21.681Z,9.55
2023-03-27T17:14:48.709Z,9.31
2023-03-27T17:17:15.571Z,9.05
2023-03-27T17:19:42.434Z,8.98
2023-03-27T17:22:09.843Z,8.76
2023-03-27T17:24:49.107Z,8.74
2023-03-27T17:27:22.969Z,8.53
2023-03-27T17:29:53.176Z,8.44
2023-03-27T17:32:19.980Z,8.35
2023-03-27T17:34:46.844Z,8.23
2023-03-27T17:37:13.740Z,8.17
2023-03-27T17:39:41.128Z,7.86
2023-03-27T17:42:08.106Z,8.00
2023-03-27T17:44:34.876Z,7.89
2023-03-27T17:47:01.816Z,7.98
2023-03-27T17:49:29.793Z,7.79
2023-03-27T17:51:56.900Z,7.49
2023-03-27T17:54:23.761Z,7.56
2023-03-27T17:56:51.703Z,7.44
2023-03-27T17:59:18.973Z,7.38
2023-03-27T18:01:46.655Z,7.28
2023-03-27T18:04:13.536Z,7.16
2023-03-27T18:06:40.554Z,7.09
2023-03-27T18:09:07.566Z,7.13
2023-03-27T18:11:34.421Z,6.96
2023-03-27T18:14:01.425Z,6.78
2023-03-27T18:16:28.545Z,6.73
2023-03-27T18:18:55.780Z,6.69
2023-03-27T18:21:22.698Z,6.45
2023-03-27T18:23:50.556Z,6.48
2023-03-27T18:26:19.600Z,6.41
2023-03-27T18:28:46.408Z,6.30
2023-03-27T18:31:13.362Z,6.31
2023-03-27T18:33:40.483Z,6.40
2023-03-27T18:36:10.939Z,6.21
2023-03-27T18:38:42.031Z,6.24
2023-03-27T18:41:10.024Z,6.02
2023-03-27T18:43:37.346Z,5.88
2023-03-27T18:46:06.454Z,5.81
2023-03-27T18:48:34.167Z,5.68
2023-03-27T18:51:05.132Z,5.64
2023-03-27T18:53:32.406Z,5.70
2023-03-27T18:55:59.841Z,5.63
2023-03-27T18:58:28.379Z,5.49
2023-03-27T19:00:58.516Z,5.40
2023-03-27T19:03:30.498Z,5.45
2023-03-27T19:06:01.270Z,5.24
2023-03-27T19:08:28.115Z,5.10
2023-03-27T19:10:58.189Z,5.07
2023-03-27T19:13:44.332Z,5.13
2023-03-27T19:16:31.408Z,5.05
2023-03-27T19:19:18.512Z,5.03
2023-03-27T19:21:51.391Z,4.88
2023-03-27T19:24:44.764Z,4.85
2023-03-27T19:27:24.196Z,4.86
2023-03-27T19:29:52.509Z,4.80
2023-03-27T19:32:19.337Z,4.99
2023-03-27T19:34:46.146Z,4.77
2023-03-27T19:37:13.017Z,4.79
2023-03-27T19:39:39.926Z,4.52
2023-03-27T19:42:07.066Z,4.57
2023-03-27T19:44:38.255Z,4.58
2023-03-27T19:47:06.119Z,4.66
2023-03-27T19:49:33.016Z,4.55
2023-03-27T19:52:19.404Z,4.42
2023-03-27T19:54:46.571Z,4.41
2023-03-27T19:57:13.388Z,4.42
2023-03-27T19:59:40.318Z,4.34
2023-03-27T20:02:07.554Z,4.34
2023-03-27T20:04:34.341Z,4.21
2023-03-27T20:07:02.176Z,4.19
2023-03-27T20:09:29.162Z,4.15
2023-03-27T20:11:56.967Z,4.22
2023-03-27T20:14:23.867Z,4.23
2023-03-27T20:16:53.987Z,4.16
2023-03-27T20:19:22.741Z,4.10
2023-03-27T20:21:49.699Z,4.04
2023-03-27T20:24:18.377Z,3.97
2023-03-27T20:26:54.032Z,3.95
2023-03-27T20:29:24.495Z,3.97
2023-03-27T20:31:51.692Z,3.74
2023-03-27T20:34:19.776Z,3.80
2023-03-27T20:36:47.656Z,3.82
2023-03-27T20:39:27.338Z,3.64
2023-03-27T20:41:58.991Z,3.67
2023-03-27T20:44:35.368Z,3.69
2023-03-27T20:47:11.292Z,3.62
2023-03-27T20:49:44.914Z,3.54
2023-03-27T20:52:14.498Z,3.49
2023-03-27T20:54:41.820Z,3.37
2023-03-27T20:57:11.407Z,3.34
2023-03-27T20:59:38.594Z,3.29
2023-03-27T21:02:05.796Z,3.40
2023-03-27T21:04:32.720Z,3.37
2023-03-27T21:06:59.784Z,3.49
2023-03-27T21:09:27.385Z,3.38
2023-03-27T21:11:55.429Z,3.41
2023-03-27T21:14:22.780Z,3.34
2023-03-27T21:16:50.522Z,3.30
2023-03-27T21:19:19.941Z,3.18
2023-03-27T21:21:47.010Z,3.24
2023-03-27T21:24:14.213Z,3.20
2023-03-27T21:26:41.632Z,3.11
2023-03-27T21:29:11.493Z,3.14
2023-03-27T21:31:39.604Z,3.04
2023-03-27T21:34:06.479Z,3.00
2023-03-27T21:36:33.669Z,3.05
2023-03-27T21:39:00.644Z,3.04
2023-03-27T21:41:27.953Z,3.11
2023-03-27T21:43:55.017Z,3.12
2023-03-27T21:46:21.892Z,3.06
2023-03-27T21:48:52.269Z,3.05
2023-03-27T21:51:19.479Z,2.99
2023-03-27T21:53:46.420Z,3.09
2023-03-27T21:56:13.388Z,3.10
2023-03-27T21:58:40.243Z,2.98
2023-03-27T22:01:07.463Z,3.10
2023-03-27T22:03:34.294Z,2.99
2023-03-27T22:06:12.404Z,3.00
2023-03-27T22:08:42.019Z,3.00
2023-03-27T22:11:09.334Z,2.94
2023-03-27T22:13:37.125Z,2.95
2023-03-27T22:16:14.975Z,2.88
2023-03-27T22:18:42.247Z,3.01
2023-03-27T22:21:23.385Z,2.86
2023-03-27T22:23:51.469Z,2.92
2023-03-27T22:26:20.281Z,2.91
2023-03-27T22:28:47.315Z,2.95
2023-03-27T22:31:14.212Z,2.89
2023-03-27T22:33:41.213Z,2.79
2023-03-27T22:36:10.651Z,2.92
2023-03-27T22:38:37.978Z,2.87
2023-03-27T22:41:06.256Z,2.87
2023-03-27T22:43:33.445Z,2.86
2023-03-27T22:46:12.806Z,2.88
2023-03-27T22:48:39.998Z,2.92
2023-03-27T22:51:07.962Z,2.78
2023-03-27T22:53:35.505Z,2.69
2023-03-27T22:56:03.292Z,2.64
2023-03-27T22:58:31.115Z,2.66
2023-03-27T23:00:57.980Z,2.67
2023-03-27T23:03:26.773Z,2.71
2023-03-27T23:05:54.650Z,2.75
2023-03-27T23:08:24.530Z,2.74
2023-03-27T23:11:02.963Z,2.64
2023-03-27T23:13:31.357Z,2.79
2023-03-27T23:15:58.486Z,2.63
2023-03-27T23:18:25.627Z,2.67
2023-03-27T23:20:57.589Z,2.63
2023-03-27T23:23:25.387Z,2.73
2023-03-27T23:25:53.008Z,2.63
2023-03-27T23:28:20.340Z,2.51
2023-03-27T23:31:04.117Z,2.56
2023-03-27T23:33:38.357Z,2.52
2023-03-27T23:36:14.143Z,2.32
2023-03-27T23:38:42.047Z,2.23
